Time;durP1;ratioP1;P1;durP2;ratioP2;P2;SDS_P1;SDS_P2;PMS_P1;PMS_P2;Temp;Humidity;BMP_temperature;BMP_pressure;BME280_temperature;BME280_humidity;BME280_pressure;Samples;Min_cycle;Max_cycle;Signal;HPM_P1;HPM_P2
2021/02/04 00:00:27;;;;;;;0.70;0.70;;;;;;;6.65;67.40;96259.25;299395;286;63009;-67
2021/02/04 00:05:29;;;;;;;0.70;0.70;;;;;;;6.77;65.60;96266.16;299395;203;63004;-71
2021/02/04 00:10:32;;;;;;;0.70;0.70;;;;;;;6.61;66.45;96298.63;299395;302;63009;-67
2021/02/04 00:15:34;;;;;;;0.65;0.65;;;;;;;6.51;67.52;96306.81;299395;227;63012;-59
2021/02/04 00:20:36;;;;;;;0.68;0.68;;;;;;;6.44;67.23;96316.31;299395;215;63008;-60
2021/02/04 00:25:37;;;;;;;0.70;0.70;;;;;;;6.38;67.30;96313.63;299395;197;63004;-64
2021/02/04 00:30:38;;;;;;;0.65;0.65;;;;;;;6.39;67.48;96331.41;299395;251;63009;-61
2021/02/04 00:35:39;;;;;;;0.60;0.60;;;;;;;6.15;69.17;96345.84;299395;239;63004;-61
2021/02/04 00:40:41;;;;;;;0.70;0.70;;;;;;;6.19;69.02;96350.41;299395;212;63009;-63
2021/02/04 00:45:44;;;;;;;0.70;0.70;;;;;;;6.14;68.48;96371.19;299395;203;63005;-60
2021/02/04 00:50:44;;;;;;;0.60;0.60;;;;;;;6.11;69.16;96382.50;299395;241;63020;-64
2021/02/04 00:55:45;;;;;;;0.60;0.60;;;;;;;6.30;66.56;96388.87;299395;276;63004;-60
2021/02/04 01:00:50;;;;;;;0.60;0.60;;;;;;;6.22;66.95;96416.41;299395;202;63009;-69
2021/02/04 01:05:51;;;;;;;;;;;;;;;6.19;67.05;96398.09;299996;983;6004;-62
2021/02/04 01:10:52;;;;;;;0.70;0.70;;;;;;;6.03;67.86;96406.22;299400;203;63004;-61
2021/02/04 01:15:53;;;;;;;0.60;0.60;;;;;;;5.96;68.07;96413.78;299395;223;63009;-61
2021/02/04 01:20:54;;;;;;;0.70;0.70;;;;;;;6.00;67.93;96435.59;299394;217;64005;-61
2021/02/04 01:25:55;;;;;;;0.60;0.60;;;;;;;6.02;67.83;96450.41;299395;227;63009;-59
2021/02/04 01:30:56;;;;;;;0.70;0.70;;;;;;;5.90;68.76;96447.19;299395;196;63005;-59
2021/02/04 01:35:57;;;;;;;0.70;0.70;;;;;;;5.72;69.59;96437.00;299395;265;63009;-63
2021/02/04 01:40:58;;;;;;;0.60;0.60;;;;;;;5.89;68.71;96434.81;299395;212;63009;-60
2021/02/04 01:45:59;;;;;;;0.65;0.65;;;;;;;5.97;68.02;96422.69;299395;233;63009;-61
2021/02/04 01:51:00;;;;;;;0.70;0.70;;;;;;;5.68;71.02;96441.31;299395;222;63005;-60
2021/02/04 01:56:01;;;;;;;0.60;0.60;;;;;;;5.58;70.30;96438.62;299395;237;63009;-59
2021/02/04 02:01:02;;;;;;;0.60;0.60;;;;;;;5.51;70.90;96444.31;299395;290;63005;-60
2021/02/04 02:06:07;;;;;;;0.60;0.60;;;;;;;5.50;71.14;96447.28;299395;207;63009;-61
2021/02/04 02:11:08;;;;;;;;;;;;;;;5.31;72.48;96438.94;299996;983;6000;-60
2021/02/04 02:16:09;;;;;;;0.60;0.60;;;;;;;5.21;72.37;96439.75;299400;210;63005;-61
2021/02/04 02:21:12;;;;;;;0.60;0.60;;;;;;;5.13;73.80;96443.00;299395;239;63009;-60
2021/02/04 02:26:13;;;;;;;0.70;0.70;;;;;;;5.13;73.98;96452.94;299395;256;63004;-62
2021/02/04 02:31:14;;;;;;;0.60;0.60;;;;;;;5.15;73.91;96451.59;299395;197;63009;-61
2021/02/04 02:36:15;;;;;;;0.70;0.70;;;;;;;5.25;73.43;96446.19;299395;225;63001;-61
2021/02/04 02:41:16;;;;;;;0.60;0.60;;;;;;;5.26;73.61;96463.94;299395;279;63009;-60
2021/02/04 02:46:17;;;;;;;0.70;0.70;;;;;;;5.06;75.21;96485.47;299395;211;63005;-62
2021/02/04 02:51:18;;;;;;;0.70;0.70;;;;;;;4.98;75.56;96488.69;299395;210;63009;-62
2021/02/04 02:56:19;;;;;;;0.70;0.70;;;;;;;4.86;75.48;96488.91;299395;215;63004;-61
2021/02/04 03:01:20;;;;;;;0.70;0.70;;;;;;;4.95;75.06;96483.84;299395;319;63009;-63
2021/02/04 03:06:21;;;;;;;0.70;0.70;;;;;;;4.88;75.13;96483.28;299395;221;63005;-62
2021/02/04 03:11:22;;;;;;;0.70;0.70;;;;;;;4.67;77.09;96496.69;299395;243;63008;-62
2021/02/04 03:16:23;;;;;;;0.70;0.70;;;;;;;4.61;76.77;96499.62;299395;209;63004;-62
2021/02/04 03:21:24;;;;;;;0.70;0.70;;;;;;;4.56;78.11;96511.16;299395;213;63009;-62
2021/02/04 03:26:25;;;;;;;0.70;0.70;;;;;;;4.60;77.33;96509.56;299395;238;63004;-57
2021/02/04 03:31:26;;;;;;;0.70;0.70;;;;;;;4.67;77.61;96518.19;299395;199;63009;-57
2021/02/04 03:36:27;;;;;;;0.70;0.70;;;;;;;4.74;77.49;96528.69;299395;209;63005;-62
2021/02/04 03:41:28;;;;;;;0.70;0.70;;;;;;;4.92;77.16;96540.81;299395;343;63008;-62
2021/02/04 03:46:29;;;;;;;0.70;0.70;;;;;;;4.96;77.46;96544.59;299395;210;63004;-62
2021/02/04 03:51:30;;;;;;;0.70;0.70;;;;;;;5.01;77.55;96547.31;299395;283;63009;-61
2021/02/04 03:56:31;;;;;;;0.60;0.60;;;;;;;5.06;76.81;96552.69;299395;213;63009;-62
2021/02/04 04:01:32;;;;;;;0.60;0.60;;;;;;;5.10;77.77;96566.41;299395;311;63009;-62
2021/02/04 04:06:33;;;;;;;0.70;0.70;;;;;;;5.30;76.43;96566.44;299395;237;63005;-61
2021/02/04 04:11:34;;;;;;;0.70;0.70;;;;;;;5.48;75.38;96565.13;299395;209;63008;-62
2021/02/04 04:16:35;;;;;;;0.70;0.70;;;;;;;5.54;74.58;96583.72;299395;263;63004;-61
2021/02/04 04:21:36;;;;;;;0.60;0.60;;;;;;;5.41;76.34;96586.09;299395;206;63009;-62
2021/02/04 04:26:37;;;;;;;0.70;0.70;;;;;;;5.28;76.96;96590.91;299395;197;63004;-61
2021/02/04 04:31:38;;;;;;;0.70;0.70;;;;;;;5.16;77.63;96597.62;299395;286;63009;-57
2021/02/04 04:36:39;;;;;;;0.70;0.70;;;;;;;5.11;78.21;96586.87;299395;214;63012;-62
2021/02/04 04:41:40;;;;;;;0.70;0.70;;;;;;;5.22;77.17;96589.28;299395;207;63009;-63
2021/02/04 04:46:41;;;;;;;0.70;0.70;;;;;;;5.30;76.67;96593.34;299395;202;63004;-62
2021/02/04 04:51:42;;;;;;;0.60;0.60;;;;;;;5.15;77.07;96590.62;299395;244;63009;-61
2021/02/04 04:56:43;;;;;;;0.70;0.70;;;;;;;5.38;75.46;96596.31;299395;284;63005;-62
2021/02/04 05:01:45;;;;;;;0.70;0.70;;;;;;;5.21;76.87;96595.75;299395;230;63021;-62
2021/02/04 05:06:46;;;;;;;0.70;0.70;;;;;;;5.12;76.78;96597.34;299395;257;63005;-61
2021/02/04 05:11:48;;;;;;;0.70;0.70;;;;;;;4.93;77.64;96599.72;299395;206;63009;-62
2021/02/04 05:16:50;;;;;;;0.70;0.70;;;;;;;4.78;79.22;96612.28;299395;202;63004;-63
2021/02/04 05:21:52;;;;;;;0.70;0.70;;;;;;;4.68;79.28;96608.50;299395;203;63009;-61
2021/02/04 05:26:56;;;;;;;0.70;0.70;;;;;;;4.58;79.94;96613.00;299395;259;63005;-62
2021/02/04 05:31:57;;;;;;;0.70;0.70;;;;;;;4.55;80.22;96621.56;299417;209;63009;-61
2021/02/04 05:37:01;;;;;;;0.70;0.70;;;;;;;4.54;80.17;96628.81;299395;233;63009;-62
2021/02/04 05:42:07;;;;;;;0.70;0.70;;;;;;;4.53;80.62;96635.28;299395;293;63009;-62
2021/02/04 05:47:29;;;;;;;0.70;0.70;;;;;;;4.51;80.63;96634.72;299395;205;63004;-62
2021/02/04 05:52:31;;;;;;;0.70;0.70;;;;;;;4.57;81.01;96646.31;299395;199;63009;-63
2021/02/04 05:57:36;;;;;;;0.70;0.70;;;;;;;4.64;80.27;96655.75;299395;203;63005;-57
2021/02/04 06:02:37;;;;;;;0.70;0.70;;;;;;;4.78;79.83;96666.06;299416;229;64013;-63
2021/02/04 06:07:45;;;;;;;0.70;0.70;;;;;;;4.78;79.77;96674.12;299395;232;63012;-62
2021/02/04 06:12:48;;;;;;;0.70;0.70;;;;;;;4.90;79.72;96677.37;299395;317;63009;-62
2021/02/04 06:17:49;;;;;;;0.70;0.70;;;;;;;4.87;79.86;96684.09;299395;252;63004;-62
2021/02/04 06:22:53;;;;;;;0.70;0.70;;;;;;;4.94;79.93;96681.16;299395;220;63009;-62
2021/02/04 06:27:59;;;;;;;0.70;0.70;;;;;;;5.26;76.99;96673.78;299417;222;63009;-60
2021/02/04 06:33:02;;;;;;;0.70;0.70;;;;;;;5.24;77.12;96681.28;299395;199;63008;-61
2021/02/04 06:38:04;;;;;;;0.70;0.70;;;;;;;5.29;76.40;96684.00;299395;298;63004;-62
2021/02/04 06:43:10;;;;;;;0.70;0.70;;;;;;;5.19;76.96;96699.31;299395;220;63009;-60
2021/02/04 06:48:11;;;;;;;0.70;0.70;;;;;;;5.05;77.11;96702.47;299395;222;63005;-61
2021/02/04 06:53:19;;;;;;;0.70;0.70;;;;;;;4.95;78.37;96709.69;299395;231;63009;-61
2021/02/04 06:58:24;;;;;;;0.70;0.70;;;;;;;4.98;78.28;96717.22;299395;208;63005;-63
2021/02/04 07:03:26;;;;;;;0.70;0.70;;;;;;;4.92;79.18;96721.75;299395;236;63009;-63
2021/02/04 07:08:27;;;;;;;0.70;0.70;;;;;;;4.82;78.87;96721.72;299395;238;63004;-62
2021/02/04 07:13:29;;;;;;;0.70;0.70;;;;;;;4.74;78.85;96735.66;299395;238;63009;-63
2021/02/04 07:18:33;;;;;;;0.70;0.70;;;;;;;4.61;79.24;96734.22;299395;263;63005;-62
2021/02/04 07:23:35;;;;;;;0.70;0.70;;;;;;;4.55;79.72;96743.31;299417;232;63009;-61
2021/02/04 07:28:37;;;;;;;0.70;0.70;;;;;;;4.56;79.39;96744.91;299395;234;63005;-63
2021/02/04 07:33:39;;;;;;;0.60;0.60;;;;;;;4.52;79.93;96759.94;299395;205;63009;-62
2021/02/04 07:38:41;;;;;;;0.60;0.60;;;;;;;4.56;79.93;96765.59;299395;293;63004;-60
2021/02/04 07:43:41;;;;;;;0.70;0.70;;;;;;;4.53;79.92;96772.31;299395;218;63009;-63
2021/02/04 07:48:42;;;;;;;0.70;0.70;;;;;;;4.61;79.42;96773.72;299395;212;63005;-57
2021/02/04 07:53:43;;;;;;;0.70;0.70;;;;;;;4.66;79.49;96782.63;299395;209;63020;-62
2021/02/04 07:58:44;;;;;;;0.70;0.70;;;;;;;4.71;79.47;96789.91;299395;239;63005;-62
2021/02/04 08:03:45;;;;;;;0.70;0.70;;;;;;;4.79;79.26;96796.69;299395;239;63009;-62
2021/02/04 08:08:46;;;;;;;0.70;0.70;;;;;;;4.82;79.01;96812.31;299395;229;63004;-62
2021/02/04 08:13:47;;;;;;;0.70;0.70;;;;;;;4.95;79.14;96822.59;299395;199;63020;-62
2021/02/04 08:18:48;;;;;;;0.70;0.70;;;;;;;5.13;78.57;96842.91;299395;304;63005;-62
2021/02/04 08:23:49;;;;;;;0.70;0.70;;;;;;;5.38;78.04;96843.06;299395;239;63009;-63
2021/02/04 08:28:50;;;;;;;0.70;0.70;;;;;;;5.71;76.37;96841.88;299396;206;63005;-62
2021/02/04 08:33:51;;;;;;;0.70;0.70;;;;;;;5.76;75.89;96841.91;299396;256;63009;-62
2021/02/04 08:38:54;;;;;;;0.70;0.70;;;;;;;5.96;75.12;96849.25;299396;239;63004;-61
2021/02/04 08:43:55;;;;;;;0.70;0.70;;;;;;;5.95;74.62;96842.25;299396;213;63009;-62
2021/02/04 08:48:56;;;;;;;0.70;0.70;;;;;;;6.09;75.28;96847.97;299396;264;63005;-61
2021/02/04 08:53:56;;;;;;;0.70;0.70;;;;;;;6.22;74.50;96834.81;299396;247;63008;-62
2021/02/04 08:58:57;;;;;;;0.70;0.70;;;;;;;6.42;74.15;96839.41;299396;214;63004;-62
2021/02/04 09:03:58;;;;;;;0.70;0.70;;;;;;;6.69;72.97;96850.75;299396;284;63009;-62
2021/02/04 09:09:00;;;;;;;0.60;0.60;;;;;;;6.89;71.46;96851.84;299396;202;63004;-62
2021/02/04 09:14:01;;;;;;;0.70;0.70;;;;;;;6.92;70.40;96851.31;299397;206;63009;-61
2021/02/04 09:19:02;;;;;;;0.60;0.60;;;;;;;7.00;70.38;96864.25;299397;213;63005;-61
2021/02/04 09:24:04;;;;;;;0.70;0.70;;;;;;;7.06;69.65;96855.06;299396;200;63008;-62
2021/02/04 09:29:08;;;;;;;0.70;0.70;;;;;;;6.93;71.11;96858.34;299396;262;63004;-62
2021/02/04 09:34:46;;;;;;;0.70;0.70;;;;;;;6.87;70.31;96868.31;299418;279;63009;-62
2021/02/04 09:39:53;;;;;;;0.70;0.70;;;;;;;6.79;69.67;96868.03;299396;224;63009;-63
2021/02/04 09:44:58;;;;;;;0.60;0.60;;;;;;;6.84;68.71;96844.56;299396;218;63004;-61
2021/02/04 09:49:59;;;;;;;0.70;0.70;;;;;;;6.85;67.17;96850.78;299418;199;63009;-62
2021/02/04 09:55:02;;;;;;;0.60;0.60;;;;;;;6.81;67.57;96847.00;299396;202;63010;-62
2021/02/04 10:00:08;;;;;;;0.60;0.60;;;;;;;6.87;67.14;96856.72;299396;219;63009;-62
2021/02/04 10:05:10;;;;;;;0.60;0.60;;;;;;;6.93;66.87;96844.84;299397;241;63005;-61
2021/02/04 10:10:12;;;;;;;0.70;0.70;;;;;;;6.94;66.17;96857.22;299397;217;63009;-63
2021/02/04 10:15:19;;;;;;;0.70;0.70;;;;;;;6.88;66.68;96861.03;299395;238;63004;-62
2021/02/04 10:20:27;;;;;;;0.60;0.60;;;;;;;6.79;66.91;96863.44;299395;290;63009;-62
2021/02/04 10:25:32;;;;;;;0.70;0.70;;;;;;;6.86;66.12;96860.47;299395;247;63005;-61
2021/02/04 10:30:36;;;;;;;;;;;;;;;6.95;65.76;96864.22;299996;982;6004;-62
2021/02/04 10:35:43;;;;;;;0.60;0.60;;;;;;;7.00;67.04;96858.84;299400;213;63009;-62
2021/02/04 10:40:46;;;;;;;0.60;0.60;;;;;;;7.25;63.76;96861.53;299395;310;63005;-62
2021/02/04 10:45:49;;;;;;;0.60;0.60;;;;;;;7.29;63.87;96857.19;299395;210;63008;-61
2021/02/04 10:50:51;;;;;;;0.60;0.60;;;;;;;7.29;64.52;96861.78;299395;213;63004;-58
2021/02/04 10:55:54;;;;;;;0.70;0.70;;;;;;;7.46;62.98;96856.91;299395;220;63009;-59
2021/02/04 11:00:55;;;;;;;0.60;0.60;;;;;;;7.50;63.38;96851.75;299395;245;63004;-60
2021/02/04 11:06:03;;;;;;;0.60;0.60;;;;;;;7.56;64.10;96839.88;299395;241;63009;-60
2021/02/04 11:11:13;;;;;;;0.60;0.60;;;;;;;7.71;62.72;96827.12;299395;207;63009;-59
2021/02/04 11:16:16;;;;;;;0.60;0.60;;;;;;;7.81;61.96;96825.47;299395;246;63008;-60
2021/02/04 11:21:21;;;;;;;0.60;0.60;;;;;;;7.84;62.32;96819.50;299395;203;63004;-60
2021/02/04 11:26:25;;;;;;;0.60;0.60;;;;;;;7.92;62.04;96817.03;299395;363;63009;-60
2021/02/04 11:31:28;;;;;;;0.60;0.60;;;;;;;8.03;60.52;96807.78;299417;220;63004;-58
2021/02/04 11:36:30;;;;;;;0.60;0.60;;;;;;;7.92;62.35;96808.94;299395;205;63009;-57
2021/02/04 11:41:32;;;;;;;0.60;0.60;;;;;;;8.02;61.41;96811.56;299395;276;63011;-60
2021/02/04 11:46:35;;;;;;;0.60;0.60;;;;;;;7.97;62.57;96810.81;299394;197;64009;-60
2021/02/04 11:51:40;;;;;;;0.60;0.60;;;;;;;7.86;62.61;96823.56;299395;221;63004;-60
2021/02/04 11:57:15;;;;;;;0.70;0.70;;;;;;;8.11;62.06;96813.69;299417;225;63009;-60
2021/02/04 12:02:57;;;;;;;0.60;0.60;;;;;;;8.19;61.99;96800.41;299395;234;63005;-59
2021/02/04 12:08:11;;;;;;;0.60;0.60;;;;;;;8.27;61.54;96801.72;299395;204;63008;-60
2021/02/04 12:13:54;;;;;;;0.65;0.65;;;;;;;8.26;61.87;96794.69;299395;375;63004;-61
2021/02/04 12:19:41;;;;;;;0.60;0.60;;;;;;;8.31;59.73;96786.56;299395;236;63009;-59
2021/02/04 12:24:47;;;;;;;0.60;0.60;;;;;;;8.35;61.19;96795.72;299417;208;63005;-60
2021/02/04 12:29:57;;;;;;;0.60;0.60;;;;;;;8.41;61.49;96797.31;299395;232;63008;-60
2021/02/04 12:34:59;;;;;;;0.60;0.60;;;;;;;8.52;61.26;96788.06;299395;252;63004;-60
2021/02/04 12:40:01;;;;;;;0.60;0.60;;;;;;;8.65;59.75;96782.00;299395;312;63009;-60
2021/02/04 12:45:04;;;;;;;0.60;0.60;;;;;;;8.61;60.47;96780.97;299395;238;63004;-60
2021/02/04 12:50:06;;;;;;;0.60;0.60;;;;;;;8.61;59.94;96778.25;299395;400;63009;-61
2021/02/04 12:55:09;;;;;;;0.60;0.60;;;;;;;8.50;61.56;96779.41;299395;302;63005;-61
2021/02/04 13:00:11;;;;;;;0.60;0.60;;;;;;;8.47;62.05;96774.56;299395;264;63008;-61
2021/02/04 13:05:12;;;;;;;0.60;0.60;;;;;;;8.42;62.70;96771.09;299395;212;63004;-59
2021/02/04 13:10:14;;;;;;;0.60;0.60;;;;;;;8.39;63.31;96783.28;299395;205;63009;-59
2021/02/04 13:15:15;;;;;;;0.60;0.60;;;;;;;8.46;61.27;96772.94;299395;381;63004;-60
2021/02/04 13:20:17;;;;;;;0.60;0.60;;;;;;;8.46;60.82;96756.72;299395;213;63009;-59
2021/02/04 13:25:18;;;;;;;0.60;0.60;;;;;;;8.45;61.85;96759.72;299395;202;63005;-60
2021/02/04 13:30:20;;;;;;;0.60;0.60;;;;;;;8.50;61.32;96756.97;299395;208;63008;-63
2021/02/04 13:35:21;;;;;;;0.60;0.60;;;;;;;8.47;62.13;96761.03;299395;217;63004;-60
2021/02/04 13:40:21;;;;;;;0.60;0.60;;;;;;;8.42;63.63;96766.50;299395;216;63009;-61
2021/02/04 13:45:23;;;;;;;0.65;0.65;;;;;;;8.41;63.46;96751.34;299395;253;63010;-60
2021/02/04 13:50:24;;;;;;;0.60;0.60;;;;;;;8.47;63.51;96750.22;299395;280;63009;-61
2021/02/04 13:55:25;;;;;;;0.60;0.60;;;;;;;8.45;63.85;96744.28;299395;235;63005;-61
2021/02/04 14:00:26;;;;;;;0.60;0.60;;;;;;;8.29;65.03;96740.09;299395;248;63022;-60
2021/02/04 14:05:27;;;;;;;0.60;0.60;;;;;;;8.20;65.44;96730.94;299395;240;63004;-59
2021/02/04 14:10:28;;;;;;;0.60;0.60;;;;;;;8.19;65.62;96729.34;299395;246;63009;-61
2021/02/04 14:15:30;;;;;;;0.60;0.60;;;;;;;8.22;65.29;96739.59;299395;273;63005;-57
2021/02/04 14:20:35;;;;;;;0.60;0.60;;;;;;;8.28;63.60;96733.06;299395;212;63009;-60
2021/02/04 14:25:36;;;;;;;0.60;0.60;;;;;;;8.27;64.63;96729.56;299417;240;63005;-56
2021/02/04 14:30:44;;;;;;;0.60;0.60;;;;;;;8.26;64.02;96730.63;299395;339;63009;-63
2021/02/04 14:35:47;;;;;;;0.60;0.60;;;;;;;8.18;65.07;96728.53;299395;257;63004;-60
2021/02/04 14:40:49;;;;;;;0.60;0.60;;;;;;;8.08;65.63;96745.59;299395;246;63009;-62
2021/02/04 14:46:14;;;;;;;0.60;0.60;;;;;;;8.03;65.75;96748.34;299395;218;63005;-61
2021/02/04 14:51:18;;;;;;;0.60;0.60;;;;;;;8.04;64.41;96736.44;299417;249;63008;-60
2021/02/04 14:56:21;;;;;;;0.60;0.60;;;;;;;7.94;65.38;96735.72;299417;204;63004;-60
2021/02/04 15:01:24;;;;;;;0.60;0.60;;;;;;;7.88;65.64;96724.13;299395;231;63009;-60
2021/02/04 15:06:25;;;;;;;0.60;0.60;;;;;;;7.90;65.23;96715.75;299395;322;63004;-61
2021/02/04 15:11:30;;;;;;;0.60;0.60;;;;;;;7.87;65.79;96721.72;299395;247;63009;-59
2021/02/04 15:16:50;;;;;;;0.60;0.60;;;;;;;7.81;65.75;96718.22;299395;274;63005;-61
2021/02/04 15:22:01;;;;;;;0.60;0.60;;;;;;;7.70;66.49;96711.25;299395;218;63008;-60
2021/02/04 15:27:04;;;;;;;0.60;0.60;;;;;;;7.70;66.26;96706.66;299395;215;63004;-61
2021/02/04 15:32:09;;;;;;;0.60;0.60;;;;;;;7.66;66.26;96704.81;299395;197;63021;-58
2021/02/04 15:37:10;;;;;;;0.60;0.60;;;;;;;7.60;66.90;96716.75;299395;210;63004;-60
2021/02/04 15:42:12;;;;;;;0.60;0.60;;;;;;;7.55;67.58;96719.47;299395;235;63009;-61
2021/02/04 15:47:17;;;;;;;0.60;0.60;;;;;;;7.44;68.35;96728.69;299395;277;63005;-60
2021/02/04 15:52:18;;;;;;;0.70;0.70;;;;;;;7.36;68.62;96720.06;299395;232;63008;-61
2021/02/04 15:57:19;;;;;;;0.60;0.60;;;;;;;7.36;67.34;96706.56;299395;213;63004;-57
2021/02/04 16:02:24;;;;;;;0.60;0.60;;;;;;;7.33;67.72;96714.41;299395;288;63009;-61
2021/02/04 16:07:25;;;;;;;0.60;0.60;;;;;;;7.31;67.96;96693.09;299417;237;63005;-61
2021/02/04 16:12:26;;;;;;;0.60;0.60;;;;;;;7.30;67.61;96704.97;299395;220;63009;-62
2021/02/04 16:17:27;;;;;;;0.60;0.60;;;;;;;7.26;68.29;96706.63;299395;293;63005;-61
2021/02/04 16:22:28;;;;;;;0.60;0.60;;;;;;;7.19;68.94;96716.91;299395;226;63009;-61
2021/02/04 16:27:29;;;;;;;0.60;0.60;;;;;;;7.14;69.30;96718.81;299394;214;64004;-60
2021/02/04 16:32:30;;;;;;;0.60;0.60;;;;;;;7.10;68.92;96712.34;299395;311;63009;-60
2021/02/04 16:37:31;;;;;;;0.60;0.60;;;;;;;7.06;69.96;96717.47;299395;204;63005;-61
2021/02/04 16:42:31;;;;;;;0.60;0.60;;;;;;;7.01;69.76;96698.59;299395;290;63009;-60
2021/02/04 16:47:34;;;;;;;0.60;0.60;;;;;;;7.09;68.87;96691.84;299395;202;63005;-61
2021/02/04 16:52:38;;;;;;;0.60;0.60;;;;;;;7.09;68.59;96692.66;299395;272;63009;-61
2021/02/04 16:57:39;;;;;;;0.60;0.60;;;;;;;7.08;68.86;96701.81;299417;234;63004;-62
2021/02/04 17:02:42;;;;;;;0.60;0.60;;;;;;;7.15;67.77;96688.84;299395;214;63018;-61
2021/02/04 17:07:46;;;;;;;0.60;0.60;;;;;;;7.13;67.65;96690.22;299395;222;63012;-59
2021/02/04 17:12:51;;;;;;;0.70;0.70;;;;;;;7.11;67.73;96705.88;299417;230;63009;-58
2021/02/04 17:17:53;;;;;;;0.60;0.60;;;;;;;7.01;68.22;96693.22;299395;202;63005;-60
2021/02/04 17:22:58;;;;;;;0.60;0.60;;;;;;;6.95;68.40;96683.50;299395;214;63009;-60
2021/02/04 17:28:03;;;;;;;0.60;0.60;;;;;;;6.97;67.72;96670.56;299395;212;63004;-57
2021/02/04 17:33:14;;;;;;;0.60;0.60;;;;;;;6.94;68.32;96671.91;299395;292;63009;-58
2021/02/04 17:38:21;;;;;;;0.60;0.60;;;;;;;6.87;68.26;96676.81;299395;240;63005;-60
2021/02/04 17:43:22;;;;;;;0.60;0.60;;;;;;;6.79;69.58;96679.25;299395;235;63008;-61
2021/02/04 17:48:24;;;;;;;0.60;0.60;;;;;;;6.69;71.05;96686.28;299395;291;63004;-62
2021/02/04 17:53:26;;;;;;;0.60;0.60;;;;;;;6.60;70.27;96687.91;299395;199;63016;-60
2021/02/04 17:58:29;;;;;;;0.60;0.60;;;;;;;6.55;71.42;96684.44;299395;197;63005;-57
2021/02/04 18:03:30;;;;;;;0.70;0.70;;;;;;;6.52;71.38;96666.91;299395;216;63009;-59
2021/02/04 18:09:00;;;;;;;0.60;0.60;;;;;;;6.54;70.17;96664.75;299395;203;63005;-59
2021/02/04 18:14:23;;;;;;;0.70;0.70;;;;;;;6.59;69.66;96667.41;299395;197;63009;-60
2021/02/04 18:19:30;;;;;;;0.60;0.60;;;;;;;6.61;69.14;96657.16;299395;277;63004;-59
2021/02/04 18:24:54;;;;;;;0.70;0.70;;;;;;;6.69;68.61;96635.06;299395;208;63009;-57
2021/02/04 18:29:56;;;;;;;0.60;0.60;;;;;;;6.82;67.38;96624.78;299395;217;63005;-59
2021/02/04 18:34:58;;;;;;;0.62;0.62;;;;;;;6.85;67.10;96629.63;299395;224;63009;-60
2021/02/04 18:39:59;;;;;;;0.70;0.70;;;;;;;6.90;66.82;96627.72;299395;218;63005;-59
2021/02/04 18:45:03;;;;;;;0.60;0.60;;;;;;;6.92;67.07;96625.56;299395;259;63019;-59
2021/02/04 18:50:10;;;;;;;0.60;0.60;;;;;;;6.90;67.36;96629.59;299395;240;63004;-60
2021/02/04 18:55:13;;;;;;;0.60;0.60;;;;;;;6.91;67.27;96621.25;299395;246;63009;-59
2021/02/04 19:00:18;;;;;;;0.70;0.70;;;;;;;6.97;66.65;96613.91;299439;218;63005;-59
2021/02/04 19:05:20;;;;;;;0.70;0.70;;;;;;;6.92;67.44;96624.75;299417;199;63008;-59
2021/02/04 19:10:29;;;;;;;0.70;0.70;;;;;;;6.91;67.57;96605.06;299395;236;63004;-61
2021/02/04 19:15:31;;;;;;;0.60;0.60;;;;;;;6.97;66.38;96600.44;299395;206;63009;-61
2021/02/04 19:20:35;;;;;;;0.60;0.60;;;;;;;7.06;65.65;96610.38;299395;217;63005;-61
2021/02/04 19:25:37;;;;;;;0.70;0.70;;;;;;;7.02;65.80;96589.62;299417;213;63009;-63
2021/02/04 19:30:42;;;;;;;0.60;0.60;;;;;;;6.92;66.34;96603.16;299395;202;63005;-61
2021/02/04 19:35:48;;;;;;;0.60;0.60;;;;;;;6.83;66.45;96608.31;299395;197;63009;-61
2021/02/04 19:40:55;;;;;;;0.60;0.60;;;;;;;6.85;66.34;96597.25;299395;238;63004;-62
2021/02/04 19:45:57;;;;;;;0.60;0.60;;;;;;;6.88;66.40;96596.72;299395;222;63009;-65
2021/02/04 19:51:15;;;;;;;0.60;0.60;;;;;;;6.75;67.36;96591.91;299395;295;63005;-61
2021/02/04 19:56:57;;;;;;;0.60;0.60;;;;;;;6.63;68.49;96587.63;299395;202;63009;-63
2021/02/04 20:02:45;;;;;;;0.70;0.70;;;;;;;6.60;69.62;96588.16;299395;203;63004;-63
2021/02/04 20:07:49;;;;;;;0.60;0.60;;;;;;;6.72;69.43;96604.03;299395;203;63005;-63
2021/02/04 20:13:02;;;;;;;0.70;0.70;;;;;;;6.62;69.97;96588.69;299395;220;63009;-62
2021/02/04 20:18:19;;;;;;;0.60;0.60;;;;;;;6.68;70.20;96592.19;299395;225;63004;-63
2021/02/04 20:23:21;;;;;;;0.60;0.60;;;;;;;6.64;70.32;96597.31;299395;249;63009;-62
2021/02/04 20:28:24;;;;;;;0.70;0.70;;;;;;;6.61;70.85;96586.28;299395;198;63005;-63
2021/02/04 20:33:27;;;;;;;0.70;0.70;;;;;;;6.62;70.90;96591.38;299395;219;63009;-62
2021/02/04 20:38:31;;;;;;;0.70;0.70;;;;;;;6.57;71.54;96575.25;299395;265;63005;-63
2021/02/04 20:43:33;;;;;;;0.70;0.70;;;;;;;6.61;71.46;96575.50;299418;210;63009;-62
2021/02/04 20:48:34;;;;;;;0.60;0.60;;;;;;;6.61;71.77;96570.91;299395;297;63004;-62
2021/02/04 20:53:46;;;;;;;0.60;0.60;;;;;;;6.68;70.81;96568.72;299395;223;63009;-60
2021/02/04 20:59:11;;;;;;;0.70;0.70;;;;;;;6.65;71.08;96577.38;299395;203;63005;-62
2021/02/04 21:04:48;;;;;;;0.60;0.60;;;;;;;6.68;70.88;96566.03;299396;262;63008;-60
2021/02/04 21:10:03;;;;;;;0.70;0.70;;;;;;;6.61;70.80;96581.69;299396;212;63004;-61
2021/02/04 21:15:17;;;;;;;0.60;0.60;;;;;;;6.60;71.20;96587.34;299418;197;63009;-61
2021/02/04 21:20:22;;;;;;;0.60;0.60;;;;;;;6.55;71.65;96585.50;299396;203;63005;-60
2021/02/04 21:25:24;;;;;;;0.60;0.60;;;;;;;6.64;71.55;96589.22;299396;243;63009;-61
2021/02/04 21:30:25;;;;;;;0.60;0.60;;;;;;;6.58;71.93;96592.25;299396;202;63005;-63
2021/02/04 21:35:27;;;;;;;0.70;0.70;;;;;;;6.61;71.93;96580.88;299396;203;63014;-62
2021/02/04 21:40:29;;;;;;;0.60;0.60;;;;;;;6.59;71.99;96589.25;299396;213;63004;-61
2021/02/04 21:45:32;;;;;;;0.60;0.60;;;;;;;6.70;72.07;96574.66;299397;258;63009;-61
2021/02/04 21:50:33;;;;;;;0.60;0.60;;;;;;;6.71;72.34;96581.66;299397;257;63005;-62
2021/02/04 21:55:35;;;;;;;0.60;0.60;;;;;;;6.82;72.54;96585.13;299396;196;63009;-60
2021/02/04 22:01:18;;;;;;;0.60;0.60;;;;;;;6.64;74.41;96591.94;299396;204;63005;-61
2021/02/04 22:07:11;;;;;;;0.60;0.60;;;;;;;6.45;75.47;96593.63;299396;222;63009;-61
2021/02/04 22:12:52;;;;;;;0.65;0.65;;;;;;;6.35;76.63;96589.03;299396;252;63005;-61
2021/02/04 22:18:12;;;;;;;0.70;0.70;;;;;;;6.31;77.64;96584.47;299396;213;63009;-61
2021/02/04 22:23:37;;;;;;;1.10;1.10;;;;;;;6.34;77.65;96586.63;299396;236;63005;-61
2021/02/04 22:28:45;;;;;;;0.60;0.60;;;;;;;6.33;77.79;96582.31;299417;203;64009;-62
2021/02/04 22:33:49;;;;;;;0.60;0.60;;;;;;;6.35;78.45;96583.66;299396;213;63004;-62
2021/02/04 22:38:53;;;;;;;0.60;0.60;;;;;;;6.31;78.53;96592.56;299419;203;63009;-62
2021/02/04 22:43:56;;;;;;;;;;;;;;;6.28;79.09;96590.41;299997;983;4197;-64
2021/02/04 22:48:59;;;;;;;0.60;0.60;;;;;;;6.36;79.83;96589.84;299400;263;63004;-62
2021/02/04 22:54:01;;;;;;;0.60;0.60;;;;;;;6.35;81.14;96582.84;299395;196;63009;-63
2021/02/04 22:59:03;;;;;;;0.60;0.60;;;;;;;6.21;81.77;96576.44;299395;229;63005;-62
2021/02/04 23:04:06;;;;;;;0.70;0.70;;;;;;;6.15;82.36;96577.50;299395;202;63008;-63
2021/02/04 23:09:06;;;;;;;0.60;0.60;;;;;;;6.06;83.06;96579.94;299395;282;63004;-62
2021/02/04 23:14:07;;;;;;;0.60;0.60;;;;;;;6.02;83.02;96568.09;299395;246;63009;-62
2021/02/04 23:19:09;;;;;;;0.70;0.70;;;;;;;6.01;83.08;96558.41;299395;209;63005;-63
2021/02/04 23:24:11;;;;;;;0.60;0.60;;;;;;;6.03;83.30;96548.97;299395;206;63023;-63
2021/02/04 23:29:12;;;;;;;0.60;0.60;;;;;;;6.00;83.32;96544.12;299395;208;63005;-64
2021/02/04 23:34:15;;;;;;;0.60;0.60;;;;;;;5.98;83.07;96550.88;299395;239;63009;-63
2021/02/04 23:39:16;;;;;;;0.60;0.60;;;;;;;6.04;83.93;96539.00;299395;222;63004;-63
2021/02/04 23:44:17;;;;;;;0.60;0.60;;;;;;;5.97;83.69;96550.06;299395;203;63009;-55
2021/02/04 23:49:19;;;;;;;0.70;0.70;;;;;;;6.00;83.68;96533.34;299395;197;63005;-61
2021/02/04 23:54:20;;;;;;;0.70;0.70;;;;;;;6.03;83.84;96538.19;299395;277;63017;-63
2021/02/04 23:59:21;;;;;;;0.60;0.60;;;;;;;5.90;84.92;96538.75;299395;250;63005;-63
